Nesquehoning, Pennsylvania
Current Conditions -  °F | °C
As of 11:15 PM on Wednesday 22 Oct 2014 (Local Time) from KHZL Reporting Station
Overcast Overcast  
Wind Chill: 37°   Ceiling: 700
Heat Index: 45°   Visibility: 10mi
Dew Point: 43°   Wind: 18mph
Humidity: 93%   Direction: 320°NW
Pressure: 29.92"   Gusts: 29mph
Location:  40.86°N, 75.81°W
Report Text: KHZL 230315Z AUTO 32016G25KT 10SM OVC007 07/06 A2992 RMK AO2 LTG DSNT SE
Loading
Personal Weather Stations






























Interactive Weather Map
Tropical Storm Tracking
New forecast layout! Learn more

10-Day Weather Forecast

Advertisements
Track Severe Weather on mobile